createdAt,value
2023-05-16T00:02:16.313Z,100993.28
2023-05-16T00:04:42.968Z,100988.50
2023-05-16T00:07:09.557Z,100990.63
2023-05-16T00:09:36.110Z,100987.50
2023-05-16T00:12:02.642Z,100983.75
2023-05-16T00:14:29.814Z,100987.78
2023-05-16T00:16:59.091Z,100988.84
2023-05-16T00:19:26.758Z,100996.06
2023-05-16T00:21:53.330Z,100987.78
2023-05-16T00:24:19.824Z,100991.59
2023-05-16T00:26:46.279Z,100982.84
2023-05-16T00:29:12.856Z,100978.19
2023-05-16T00:31:39.371Z,100983.72
2023-05-16T00:34:05.961Z,100985.78
2023-05-16T00:36:33.044Z,100989.22
2023-05-16T00:38:59.514Z,100994.53
2023-05-16T00:41:26.266Z,100987.97
2023-05-16T00:43:53.038Z,100984.13
2023-05-16T00:46:19.565Z,100983.03
2023-05-16T00:48:46.367Z,100993.53
2023-05-16T00:51:12.912Z,100995.69
2023-05-16T00:53:39.636Z,100993.59
2023-05-16T00:56:06.959Z,100986.88
2023-05-16T00:58:33.986Z,100997.34
2023-05-16T01:01:03.742Z,101003.22
2023-05-16T01:03:30.825Z,101007.50
2023-05-16T01:05:58.190Z,100995.81
2023-05-16T01:08:24.691Z,101008.09
2023-05-16T01:11:00.755Z,101000.28
2023-05-16T01:13:32.693Z,101003.63
2023-05-16T01:16:11.158Z,101010.84
2023-05-16T01:18:52.582Z,101004.19
2023-05-16T01:21:32.020Z,100998.06
2023-05-16T01:24:14.038Z,101002.84
2023-05-16T01:26:41.409Z,101005.06
2023-05-16T01:29:08.266Z,101000.75
2023-05-16T01:31:34.820Z,100999.53
2023-05-16T01:34:01.744Z,100994.63
2023-05-16T01:36:43.964Z,101008.25
2023-05-16T01:39:26.067Z,101004.13
2023-05-16T01:42:03.668Z,101007.06
2023-05-16T01:44:50.975Z,101010.78
2023-05-16T01:47:19.762Z,101008.69
2023-05-16T01:50:08.447Z,101009.78
2023-05-16T01:52:44.200Z,101010.34
2023-05-16T01:55:14.643Z,101020.63
2023-05-16T01:57:42.489Z,101009.88
2023-05-16T02:00:09.410Z,101023.94
2023-05-16T02:02:36.117Z,101021.47
2023-05-16T02:05:02.585Z,101021.00
2023-05-16T02:07:29.074Z,101025.69
2023-05-16T02:09:55.563Z,101028.31
2023-05-16T02:12:22.134Z,101027.25
2023-05-16T02:14:48.637Z,101032.22
2023-05-16T02:17:15.110Z,101027.16
2023-05-16T02:19:41.541Z,101029.16
2023-05-16T02:22:08.025Z,101032.59
2023-05-16T02:24:34.810Z,101032.69
2023-05-16T02:27:01.804Z,101034.97
2023-05-16T02:29:28.262Z,101041.66
2023-05-16T02:31:54.850Z,101043.59
2023-05-16T02:34:21.367Z,101041.41
2023-05-16T02:36:47.858Z,101041.22
2023-05-16T02:39:14.733Z,101038.50
2023-05-16T02:41:41.746Z,101028.22
2023-05-16T02:44:08.296Z,101032.00
2023-05-16T02:46:35.015Z,101027.16
2023-05-16T02:49:02.144Z,101031.94
2023-05-16T02:51:28.816Z,101025.75
2023-05-16T02:54:00.065Z,101025.34
2023-05-16T02:56:26.644Z,101025.41
2023-05-16T02:58:54.509Z,101016.94
2023-05-16T03:01:21.200Z,101027.31
2023-05-16T03:03:47.921Z,101022.53
2023-05-16T03:06:14.510Z,101030.88
2023-05-16T03:08:41.591Z,101032.66
2023-05-16T03:11:08.074Z,101032.91
2023-05-16T03:13:34.598Z,101036.19
2023-05-16T03:16:01.524Z,101036.34
2023-05-16T03:18:28.133Z,101037.25
2023-05-16T03:20:54.938Z,101043.78
2023-05-16T03:23:21.526Z,101051.47
2023-05-16T03:25:48.295Z,101044.16
2023-05-16T03:28:16.653Z,101054.34
2023-05-16T03:30:43.237Z,101063.78
2023-05-16T03:33:09.769Z,101054.94
2023-05-16T03:35:36.601Z,101058.28
2023-05-16T03:38:03.258Z,101066.25
2023-05-16T03:40:29.791Z,101065.91
2023-05-16T03:42:56.274Z,101062.34
2023-05-16T03:45:22.717Z,101065.66
2023-05-16T03:47:49.908Z,101066.09
2023-05-16T03:50:16.808Z,101056.59
2023-05-16T03:52:44.006Z,101058.56
2023-05-16T03:55:10.691Z,101065.81
2023-05-16T03:57:38.489Z,101072.84
2023-05-16T04:00:08.185Z,101076.69
2023-05-16T04:02:34.833Z,101073.72
2023-05-16T04:05:01.409Z,101079.13
2023-05-16T04:07:28.338Z,101093.06
2023-05-16T04:09:56.049Z,101084.97
2023-05-16T04:12:23.154Z,101082.03
2023-05-16T04:14:49.752Z,101090.84
2023-05-16T04:17:16.284Z,101098.53
2023-05-16T04:19:42.778Z,101093.06
2023-05-16T04:22:09.221Z,101093.59
2023-05-16T04:24:35.912Z,101097.44
2023-05-16T04:27:02.429Z,101098.91
2023-05-16T04:29:29.231Z,101103.50
2023-05-16T04:31:55.952Z,101107.53
2023-05-16T04:34:23.356Z,101109.66
2023-05-16T04:36:49.826Z,101111.31
2023-05-16T04:39:16.300Z,101108.06
2023-05-16T04:41:42.756Z,101111.59
2023-05-16T04:44:11.165Z,101112.25
2023-05-16T04:46:37.741Z,101108.16
2023-05-16T04:49:04.614Z,101119.28
2023-05-16T04:51:32.693Z,101117.16
2023-05-16T04:53:59.536Z,101115.44
2023-05-16T04:56:27.044Z,101124.44
2023-05-16T04:58:54.655Z,101120.97
2023-05-16T05:01:21.454Z,101126.53
2023-05-16T05:03:48.554Z,101129.28
2023-05-16T05:06:15.088Z,101127.78
2023-05-16T05:08:41.546Z,101135.59
2023-05-16T05:11:08.028Z,101119.22
2023-05-16T05:13:34.507Z,101117.31
2023-05-16T05:16:04.723Z,101120.84
2023-05-16T05:18:31.425Z,101124.94
2023-05-16T05:20:58.229Z,101124.66
2023-05-16T05:23:24.819Z,101135.16
2023-05-16T05:25:51.363Z,101129.38
2023-05-16T05:28:18.060Z,101138.63
2023-05-16T05:30:44.528Z,101128.16
2023-05-16T05:33:11.850Z,101124.06
2023-05-16T05:35:38.534Z,101125.50
2023-05-16T05:38:04.991Z,101132.81
2023-05-16T05:40:31.481Z,101132.00
2023-05-16T05:42:57.936Z,101129.69
2023-05-16T05:45:24.416Z,101148.75
2023-05-16T05:47:51.135Z,101148.63
2023-05-16T05:50:17.744Z,101148.53
2023-05-16T05:52:44.301Z,101145.81
2023-05-16T05:55:10.886Z,101153.81
2023-05-16T05:57:37.915Z,101147.59
2023-05-16T06:00:05.320Z,101162.94
2023-05-16T06:02:31.936Z,101164.22
2023-05-16T06:04:58.489Z,101162.22
2023-05-16T06:07:25.027Z,101163.22
2023-05-16T06:09:52.163Z,101165.91
2023-05-16T06:12:18.616Z,101167.19
2023-05-16T06:14:45.137Z,101172.16
2023-05-16T06:17:11.661Z,101163.75
2023-05-16T06:19:38.214Z,101164.13
2023-05-16T06:22:04.822Z,101176.53
2023-05-16T06:24:31.613Z,101170.75
2023-05-16T06:26:58.190Z,101176.25
2023-05-16T06:29:24.674Z,101174.44
2023-05-16T06:31:51.223Z,101168.56
2023-05-16T06:34:17.770Z,101157.16
2023-05-16T06:36:44.659Z,101170.72
2023-05-16T06:39:12.224Z,101169.56
2023-05-16T06:41:38.697Z,101171.03
2023-05-16T06:44:05.257Z,101179.50
2023-05-16T06:46:32.850Z,101184.44
2023-05-16T06:48:59.553Z,101192.91
2023-05-16T06:51:26.034Z,101194.84
2023-05-16T06:53:52.552Z,101185.22
2023-05-16T06:56:19.049Z,101188.25
2023-05-16T06:58:45.941Z,101187.53
2023-05-16T07:01:12.509Z,101186.03
2023-05-16T07:03:39.882Z,101191.31
2023-05-16T07:06:06.560Z,101180.47
2023-05-16T07:08:33.341Z,101196.09
2023-05-16T07:10:59.833Z,101196.50
2023-05-16T07:13:26.575Z,101199.47
2023-05-16T07:15:53.139Z,101197.94
2023-05-16T07:18:19.930Z,101200.16
2023-05-16T07:20:46.767Z,101197.66
2023-05-16T07:23:13.261Z,101196.75
2023-05-16T07:25:39.969Z,101186.38
2023-05-16T07:28:06.522Z,101202.34
2023-05-16T07:30:33.071Z,101202.50
2023-05-16T07:32:59.577Z,101209.50
2023-05-16T07:35:26.364Z,101199.94
2023-05-16T07:37:53.264Z,101202.41
2023-05-16T07:40:21.323Z,101203.31
2023-05-16T07:42:47.788Z,101206.66
2023-05-16T07:45:14.382Z,101191.91
2023-05-16T07:47:41.030Z,101202.50
2023-05-16T07:50:07.892Z,101207.53
2023-05-16T07:52:34.827Z,101216.97
2023-05-16T07:55:01.439Z,101214.72
2023-05-16T07:57:27.988Z,101202.09
2023-05-16T07:59:55.030Z,101216.84
2023-05-16T08:02:24.726Z,101216.78
2023-05-16T08:04:51.443Z,101221.56
2023-05-16T08:07:17.948Z,101226.78
2023-05-16T08:09:44.439Z,101222.31
2023-05-16T08:12:10.957Z,101222.31
2023-05-16T08:14:37.476Z,101211.16
2023-05-16T08:17:04.593Z,101194.28
2023-05-16T08:19:32.863Z,101202.34
2023-05-16T08:21:59.368Z,101207.72
2023-05-16T08:24:25.872Z,101219.31
2023-05-16T08:26:52.332Z,101215.53
2023-05-16T08:29:18.840Z,101207.91
2023-05-16T08:31:45.454Z,101208.47
2023-05-16T08:34:12.018Z,101215.31
2023-05-16T08:36:39.044Z,101209.94
2023-05-16T08:39:06.187Z,101210.38
2023-05-16T08:41:32.796Z,101218.75
2023-05-16T08:43:59.379Z,101213.88
2023-05-16T08:46:26.519Z,101209.34
2023-05-16T08:48:53.944Z,101221.13
2023-05-16T08:51:21.387Z,101236.47
2023-05-16T08:53:54.815Z,101224.41
2023-05-16T08:56:22.352Z,101236.13
2023-05-16T08:58:50.588Z,101236.72
2023-05-16T09:01:17.392Z,101236.25
2023-05-16T09:03:44.213Z,101230.66
2023-05-16T09:06:10.931Z,101230.22
2023-05-16T09:08:37.428Z,101228.91
2023-05-16T09:11:04.086Z,101215.41
2023-05-16T09:13:30.573Z,101212.94
2023-05-16T09:16:12.805Z,101211.56
2023-05-16T09:18:40.641Z,101208.53
2023-05-16T09:21:10.148Z,101193.69
2023-05-16T09:23:37.469Z,101199.84
2023-05-16T09:26:08.189Z,101200.75
2023-05-16T09:28:37.777Z,101231.13
2023-05-16T09:31:04.379Z,101225.16
2023-05-16T09:33:31.056Z,101237.81
2023-05-16T09:35:58.398Z,101234.38
2023-05-16T09:38:26.547Z,101238.25
2023-05-16T09:40:56.481Z,101229.38
2023-05-16T09:43:27.090Z,101223.06
2023-05-16T09:45:53.815Z,101223.28
2023-05-16T09:48:21.515Z,101227.75
2023-05-16T09:50:53.529Z,101221.78
2023-05-16T09:53:27.726Z,101223.31
2023-05-16T09:56:21.527Z,101228.06
2023-05-16T09:58:48.036Z,101239.72
2023-05-16T10:01:14.563Z,101228.53
2023-05-16T10:03:42.673Z,101235.84
2023-05-16T10:06:09.666Z,101229.28
2023-05-16T10:08:37.234Z,101211.97
2023-05-16T10:11:06.824Z,101211.00
2023-05-16T10:13:35.269Z,101236.75
2023-05-16T10:16:08.550Z,101223.44
2023-05-16T10:18:36.276Z,101219.47
2023-05-16T10:21:08.285Z,101220.78
2023-05-16T10:23:37.848Z,101219.81
2023-05-16T10:26:06.143Z,101223.03
2023-05-16T10:28:33.033Z,101217.69
2023-05-16T10:31:01.484Z,101235.97
2023-05-16T10:33:28.665Z,101224.69
2023-05-16T10:35:55.699Z,101225.34
2023-05-16T10:38:24.021Z,101210.38
2023-05-16T10:40:53.388Z,101219.13
2023-05-16T10:43:25.985Z,101216.50
2023-05-16T10:45:57.515Z,101222.47
2023-05-16T10:48:31.167Z,101215.53
2023-05-16T10:50:57.711Z,101217.28
2023-05-16T10:53:34.001Z,101240.63
2023-05-16T10:56:00.846Z,101262.03
2023-05-16T10:58:33.349Z,101273.09
2023-05-16T11:01:19.797Z,101281.69
2023-05-16T11:04:04.835Z,101285.94
2023-05-16T11:06:32.788Z,101279.97
2023-05-16T11:09:11.434Z,101283.16
2023-05-16T11:11:46.340Z,101286.28
2023-05-16T11:14:23.476Z,101322.16
2023-05-16T11:17:08.454Z,101312.06
2023-05-16T11:19:55.302Z,101321.94
2023-05-16T11:22:34.380Z,101329.66
2023-05-16T11:25:05.625Z,101323.41
2023-05-16T11:27:33.525Z,101338.66
2023-05-16T11:30:21.926Z,101332.97
2023-05-16T11:32:49.162Z,101317.19
2023-05-16T11:35:17.893Z,101306.34
2023-05-16T11:37:45.626Z,101302.34
2023-05-16T11:40:13.697Z,101288.09
2023-05-16T11:42:44.102Z,101279.63
2023-05-16T11:45:22.426Z,101298.53
2023-05-16T11:47:49.392Z,101300.53
2023-05-16T11:50:18.114Z,101315.84
2023-05-16T11:52:50.374Z,101332.28
2023-05-16T11:55:28.320Z,101344.81
2023-05-16T11:57:59.813Z,101339.16
2023-05-16T12:00:27.450Z,101340.47
2023-05-16T12:02:55.566Z,101337.84
2023-05-16T12:05:27.407Z,101325.22
2023-05-16T12:07:54.710Z,101331.72
2023-05-16T12:10:21.439Z,101318.31
2023-05-16T12:12:49.959Z,101325.06
2023-05-16T12:15:16.502Z,101317.50
2023-05-16T12:17:43.161Z,101310.59
2023-05-16T12:20:14.657Z,101315.50
2023-05-16T12:22:43.110Z,101306.34
2023-05-16T12:25:32.539Z,101299.44
2023-05-16T12:28:01.060Z,101284.69
2023-05-16T12:30:28.758Z,101280.00
2023-05-16T12:32:59.340Z,101287.78
2023-05-16T12:35:26.935Z,101286.81
2023-05-16T12:37:53.536Z,101282.59
2023-05-16T12:40:20.783Z,101290.66
2023-05-16T12:42:52.020Z,101294.97
2023-05-16T12:45:18.720Z,101295.94
2023-05-16T12:47:46.209Z,101296.94
2023-05-16T12:50:17.619Z,101285.69
2023-05-16T12:52:51.614Z,101284.78
2023-05-16T12:55:18.988Z,101282.97
2023-05-16T12:57:47.840Z,101299.97
2023-05-16T13:00:16.383Z,101300.63
2023-05-16T13:02:42.999Z,101278.31
2023-05-16T13:05:10.372Z,101296.03
2023-05-16T13:07:37.506Z,101290.50
2023-05-16T13:10:04.473Z,101303.97
2023-05-16T13:12:31.153Z,101300.41
2023-05-16T13:14:57.839Z,101300.41
2023-05-16T13:17:24.430Z,101304.72
2023-05-16T13:19:51.584Z,101310.66
2023-05-16T13:22:18.113Z,101327.28
2023-05-16T13:24:46.666Z,101336.31
2023-05-16T13:27:16.826Z,101333.22
2023-05-16T13:29:43.440Z,101330.09
2023-05-16T13:32:10.139Z,101330.44
2023-05-16T13:34:36.722Z,101335.84
2023-05-16T13:37:03.878Z,101329.44
2023-05-16T13:39:30.786Z,101339.03
2023-05-16T13:41:57.295Z,101342.81
2023-05-16T13:44:23.902Z,101332.84
2023-05-16T13:46:50.748Z,101343.22
2023-05-16T13:49:17.411Z,101328.97
2023-05-16T13:51:44.262Z,101327.25
2023-05-16T13:54:10.882Z,101333.97
2023-05-16T13:56:37.388Z,101321.41
2023-05-16T13:59:06.814Z,101330.66
2023-05-16T14:01:34.316Z,101316.63
2023-05-16T14:04:00.912Z,101324.06
2023-05-16T14:06:27.501Z,101319.50
2023-05-16T14:08:54.293Z,101332.22
2023-05-16T14:11:23.146Z,101325.94
2023-05-16T14:13:49.667Z,101329.44
2023-05-16T14:16:17.305Z,101345.06
2023-05-16T14:18:43.872Z,101377.13
2023-05-16T14:21:10.454Z,101371.34
2023-05-16T14:23:37.071Z,101374.38
2023-05-16T14:26:06.926Z,101372.13
2023-05-16T14:28:34.190Z,101361.44
2023-05-16T14:31:01.314Z,101369.28
2023-05-16T14:33:27.810Z,101357.38
2023-05-16T14:35:54.469Z,101360.19
2023-05-16T14:38:21.184Z,101349.84
2023-05-16T14:40:47.687Z,101356.09
2023-05-16T14:43:14.151Z,101356.63
2023-05-16T14:45:40.685Z,101360.22
2023-05-16T14:48:08.475Z,101349.84
2023-05-16T14:50:35.362Z,101347.78
2023-05-16T14:53:01.883Z,101343.44
2023-05-16T14:55:28.675Z,101336.91
2023-05-16T14:57:59.439Z,101350.47
2023-05-16T15:00:26.972Z,101348.31
2023-05-16T15:02:53.827Z,101345.25
2023-05-16T15:05:20.559Z,101344.59
2023-05-16T15:07:47.190Z,101364.88
2023-05-16T15:10:13.928Z,101383.53
2023-05-16T15:12:41.125Z,101390.41
2023-05-16T15:15:12.213Z,101407.91
2023-05-16T15:17:41.603Z,101428.47
2023-05-16T15:20:10.830Z,101438.34
2023-05-16T15:22:38.467Z,101443.56
2023-05-16T15:25:05.870Z,101435.09
2023-05-16T15:27:32.815Z,101429.06
2023-05-16T15:29:59.984Z,101402.41
2023-05-16T15:32:26.862Z,101407.03
2023-05-16T15:34:53.578Z,101419.78
2023-05-16T15:37:20.864Z,101416.84
2023-05-16T15:39:47.677Z,101424.69
2023-05-16T15:42:14.679Z,101429.00
2023-05-16T15:44:41.350Z,101442.53
2023-05-16T15:47:08.781Z,101444.75
2023-05-16T15:49:35.330Z,101448.22
2023-05-16T15:52:02.017Z,101429.41
2023-05-16T15:54:29.248Z,101421.13
2023-05-16T15:56:55.789Z,101407.50
2023-05-16T15:59:22.255Z,101396.88
2023-05-16T16:01:48.791Z,101402.06
2023-05-16T16:04:15.454Z,101396.78
2023-05-16T16:06:42.025Z,101388.63
2023-05-16T16:09:09.546Z,101394.50
2023-05-16T16:11:36.198Z,101390.34
2023-05-16T16:14:02.811Z,101396.53
2023-05-16T16:16:29.318Z,101400.72
2023-05-16T16:18:55.928Z,101408.22
2023-05-16T16:21:23.822Z,101405.66
2023-05-16T16:23:50.308Z,101405.09
2023-05-16T16:26:17.412Z,101404.88
2023-05-16T16:28:43.917Z,101412.81
2023-05-16T16:31:10.969Z,101390.44
2023-05-16T16:33:37.464Z,101390.00
2023-05-16T16:36:04.295Z,101384.75
2023-05-16T16:38:30.850Z,101385.06
2023-05-16T16:40:57.372Z,101375.34
2023-05-16T16:43:23.842Z,101381.06
2023-05-16T16:45:50.676Z,101382.03
2023-05-16T16:48:17.167Z,101393.81
2023-05-16T16:50:44.116Z,101378.59
2023-05-16T16:53:11.482Z,101384.94
2023-05-16T16:55:40.700Z,101390.59
2023-05-16T16:58:07.697Z,101391.69
2023-05-16T17:00:34.297Z,101398.13
2023-05-16T17:03:01.134Z,101389.00
2023-05-16T17:05:28.152Z,101388.09
2023-05-16T17:07:54.877Z,101383.09
2023-05-16T17:10:21.723Z,101381.72
2023-05-16T17:12:50.150Z,101387.69
2023-05-16T17:15:19.496Z,101387.47
2023-05-16T17:17:46.670Z,101390.31
2023-05-16T17:20:13.391Z,101392.03
2023-05-16T17:22:40.774Z,101381.03
2023-05-16T17:25:08.049Z,101379.66
2023-05-16T17:27:34.552Z,101385.47
2023-05-16T17:30:02.754Z,101383.28
2023-05-16T17:32:33.235Z,101388.56
2023-05-16T17:35:03.680Z,101384.63
2023-05-16T17:37:30.717Z,101383.69
2023-05-16T17:39:57.622Z,101387.69
2023-05-16T17:42:24.259Z,101384.59
2023-05-16T17:44:51.051Z,101385.38
2023-05-16T17:47:20.027Z,101383.75
2023-05-16T17:49:47.256Z,101394.59
2023-05-16T17:52:14.692Z,101397.78
2023-05-16T17:54:41.403Z,101408.88
2023-05-16T17:57:08.892Z,101409.44
2023-05-16T17:59:35.445Z,101407.00
2023-05-16T18:02:01.984Z,101408.22
2023-05-16T18:04:28.520Z,101411.84
2023-05-16T18:06:56.238Z,101411.69
2023-05-16T18:09:22.789Z,101417.63
2023-05-16T18:11:50.011Z,101414.63
2023-05-16T18:14:17.192Z,101416.16
2023-05-16T18:16:44.230Z,101424.44
2023-05-16T18:19:11.004Z,101433.56
2023-05-16T18:21:38.298Z,101437.16
2023-05-16T18:24:08.048Z,101424.25
2023-05-16T18:26:34.741Z,101430.09
2023-05-16T18:29:02.171Z,101439.97
2023-05-16T18:31:30.529Z,101443.69
2023-05-16T18:33:57.583Z,101440.09
2023-05-16T18:36:24.083Z,101442.13
2023-05-16T18:38:50.755Z,101447.75
2023-05-16T18:41:17.349Z,101452.91
2023-05-16T18:43:43.899Z,101448.31
2023-05-16T18:46:10.352Z,101445.38
2023-05-16T18:48:36.887Z,101450.63
2023-05-16T18:51:03.595Z,101459.09
2023-05-16T18:53:30.151Z,101459.00
2023-05-16T18:55:56.730Z,101455.69
2023-05-16T18:58:23.315Z,101449.53
2023-05-16T19:00:49.930Z,101451.31
2023-05-16T19:03:17.230Z,101466.53
2023-05-16T19:05:44.010Z,101465.94
2023-05-16T19:08:10.783Z,101463.31
2023-05-16T19:10:38.549Z,101471.13
2023-05-16T19:13:08.781Z,101476.97
2023-05-16T19:15:36.218Z,101473.69
2023-05-16T19:18:04.840Z,101476.88
2023-05-16T19:20:32.993Z,101486.34
2023-05-16T19:22:59.484Z,101481.81
2023-05-16T19:25:26.543Z,101487.72
2023-05-16T19:27:53.280Z,101479.78
2023-05-16T19:30:20.011Z,101485.78
2023-05-16T19:32:46.533Z,101488.06
2023-05-16T19:35:13.090Z,101480.16
2023-05-16T19:37:39.645Z,101486.72
2023-05-16T19:40:06.871Z,101482.56
2023-05-16T19:42:33.362Z,101488.16
2023-05-16T19:44:59.959Z,101492.06
2023-05-16T19:47:26.549Z,101496.66
2023-05-16T19:49:53.117Z,101494.34
2023-05-16T19:52:19.607Z,101484.88
2023-05-16T19:54:46.294Z,101492.56
2023-05-16T19:57:12.760Z,101491.97
2023-05-16T19:59:39.267Z,101487.34
2023-05-16T20:02:05.752Z,101482.53
2023-05-16T20:04:32.320Z,101490.38
2023-05-16T20:06:58.961Z,101487.41
2023-05-16T20:09:26.535Z,101488.13
2023-05-16T20:11:53.908Z,101490.72
2023-05-16T20:14:21.173Z,101482.25
2023-05-16T20:16:47.688Z,101494.09
2023-05-16T20:19:15.373Z,101489.13
2023-05-16T20:21:41.986Z,101499.06
2023-05-16T20:24:08.608Z,101494.72
2023-05-16T20:26:35.191Z,101497.56
2023-05-16T20:29:01.719Z,101499.84
2023-05-16T20:31:28.213Z,101496.03
2023-05-16T20:33:54.852Z,101495.44
2023-05-16T20:36:25.366Z,101495.22
2023-05-16T20:38:52.885Z,101484.88
2023-05-16T20:41:19.679Z,101502.09
2023-05-16T20:43:46.919Z,101499.59
2023-05-16T20:46:13.512Z,101502.16
2023-05-16T20:48:40.132Z,101490.09
2023-05-16T20:51:06.957Z,101495.22
2023-05-16T20:53:33.670Z,101494.63
2023-05-16T20:56:00.207Z,101498.38
2023-05-16T20:58:26.752Z,101498.53
2023-05-16T21:00:53.271Z,101492.00
2023-05-16T21:03:19.803Z,101496.84
2023-05-16T21:05:46.418Z,101501.59
2023-05-16T21:08:12.948Z,101490.50
2023-05-16T21:10:39.523Z,101493.97
2023-05-16T21:13:06.220Z,101501.97
2023-05-16T21:15:32.781Z,101502.34
2023-05-16T21:17:59.597Z,101496.06
2023-05-16T21:20:28.687Z,101505.94
2023-05-16T21:22:55.666Z,101493.69
2023-05-16T21:25:22.256Z,101500.38
2023-05-16T21:27:48.860Z,101503.84
2023-05-16T21:30:15.533Z,101509.16
2023-05-16T21:32:42.041Z,101501.09
2023-05-16T21:35:09.031Z,101500.50
2023-05-16T21:37:35.560Z,101502.63
2023-05-16T21:40:02.179Z,101505.81
2023-05-16T21:42:28.680Z,101508.34
2023-05-16T21:44:55.181Z,101509.75
2023-05-16T21:47:21.659Z,101513.41
2023-05-16T21:49:48.162Z,101512.72
2023-05-16T21:52:16.369Z,101507.59
2023-05-16T21:54:43.024Z,101501.84
2023-05-16T21:57:09.504Z,101506.50
2023-05-16T21:59:36.095Z,101506.19
2023-05-16T22:02:02.583Z,101498.81
2023-05-16T22:04:29.081Z,101500.03
2023-05-16T22:06:55.540Z,101507.06
2023-05-16T22:09:22.058Z,101507.59
2023-05-16T22:11:48.538Z,101511.63
2023-05-16T22:14:15.086Z,101507.69
2023-05-16T22:16:41.587Z,101513.28
2023-05-16T22:19:08.996Z,101513.50
2023-05-16T22:21:36.154Z,101514.94
2023-05-16T22:24:03.144Z,101525.78
2023-05-16T22:26:29.742Z,101527.44
2023-05-16T22:28:56.269Z,101528.72
2023-05-16T22:31:22.796Z,101525.59
2023-05-16T22:33:49.310Z,101533.47
2023-05-16T22:36:15.882Z,101533.63
2023-05-16T22:38:42.391Z,101537.22
2023-05-16T22:41:08.932Z,101537.66
2023-05-16T22:43:35.411Z,101535.22
2023-05-16T22:46:03.319Z,101549.69
2023-05-16T22:48:30.109Z,101542.22
2023-05-16T22:50:57.694Z,101542.22
2023-05-16T22:53:24.319Z,101555.91
2023-05-16T22:55:50.962Z,101548.00
2023-05-16T22:58:17.891Z,101544.38
2023-05-16T23:00:44.483Z,101555.28
2023-05-16T23:03:11.125Z,101559.16
2023-05-16T23:05:37.730Z,101570.34
2023-05-16T23:08:04.481Z,101557.38
2023-05-16T23:10:31.515Z,101548.25
2023-05-16T23:12:58.081Z,101563.81
2023-05-16T23:15:24.585Z,101562.22
2023-05-16T23:17:53.782Z,101564.19
2023-05-16T23:20:20.691Z,101562.50
2023-05-16T23:22:47.252Z,101560.72
2023-05-16T23:25:13.737Z,101562.25
2023-05-16T23:27:40.201Z,101559.56
2023-05-16T23:30:09.113Z,101562.59
2023-05-16T23:32:35.629Z,101568.47
2023-05-16T23:35:02.362Z,101572.91
2023-05-16T23:37:28.971Z,101583.22
2023-05-16T23:39:55.911Z,101586.66
2023-05-16T23:42:22.589Z,101581.34
2023-05-16T23:44:49.155Z,101586.03
2023-05-16T23:47:15.666Z,101585.38
2023-05-16T23:49:42.209Z,101594.78
2023-05-16T23:52:08.794Z,101602.25
2023-05-16T23:54:35.478Z,101597.59
2023-05-16T23:57:02.240Z,101597.84
2023-05-16T23:59:28.764Z,101588.78
